sensor_id;sensor_type;location;lat;lon;timestamp;noise_LAeq;noise_LA_min;noise_LA_max;noise_LA01;noise_LA95
36217;Laerm;22259;48.792;8.964;2022-07-29T00:00:10;40.31;38.21;42.90;;
36217;Laerm;22259;48.792;8.964;2022-07-29T00:02:35;40.43;38.01;43.58;;
36217;Laerm;22259;48.792;8.964;2022-07-29T00:05:01;40.47;37.87;45.15;;
36217;Laerm;22259;48.792;8.964;2022-07-29T00:07:27;40.78;38.37;43.31;;
36217;Laerm;22259;48.792;8.964;2022-07-29T00:09:53;40.92;38.32;47.54;;
36217;Laerm;22259;48.792;8.964;2022-07-29T00:12:19;41.17;38.49;43.97;;
36217;Laerm;22259;48.792;8.964;2022-07-29T00:14:45;40.48;37.83;43.62;;
36217;Laerm;22259;48.792;8.964;2022-07-29T00:17:10;40.74;37.82;44.36;;
36217;Laerm;22259;48.792;8.964;2022-07-29T00:19:36;40.89;38.49;44.30;;
36217;Laerm;22259;48.792;8.964;2022-07-29T00:22:01;41.37;38.52;44.44;;
36217;Laerm;22259;48.792;8.964;2022-07-29T00:24:26;41.31;38.92;43.83;;
36217;Laerm;22259;48.792;8.964;2022-07-29T00:26:52;40.72;38.05;44.21;;
36217;Laerm;22259;48.792;8.964;2022-07-29T00:29:17;40.91;38.45;43.42;;
36217;Laerm;22259;48.792;8.964;2022-07-29T00:31:43;41.13;38.49;43.89;;
36217;Laerm;22259;48.792;8.964;2022-07-29T00:34:08;40.89;38.60;43.45;;
36217;Laerm;22259;48.792;8.964;2022-07-29T00:38:08;41.39;38.56;45.89;;
36217;Laerm;22259;48.792;8.964;2022-07-29T00:40:33;41.56;38.92;44.86;;
36217;Laerm;22259;48.792;8.964;2022-07-29T00:42:59;40.94;37.70;43.78;;
36217;Laerm;22259;48.792;8.964;2022-07-29T00:45:24;40.53;38.05;44.02;;
36217;Laerm;22259;48.792;8.964;2022-07-29T00:47:50;40.83;38.09;43.68;;
36217;Laerm;22259;48.792;8.964;2022-07-29T00:50:15;41.31;38.13;45.48;;
36217;Laerm;22259;48.792;8.964;2022-07-29T00:52:41;41.15;38.74;44.30;;
36217;Laerm;22259;48.792;8.964;2022-07-29T00:55:11;40.83;38.09;43.90;;
36217;Laerm;22259;48.792;8.964;2022-07-29T00:57:37;41.00;38.29;45.54;;
36217;Laerm;22259;48.792;8.964;2022-07-29T01:00:03;41.36;38.81;49.15;;
36217;Laerm;22259;48.792;8.964;2022-07-29T01:02:29;41.33;38.60;44.55;;
36217;Laerm;22259;48.792;8.964;2022-07-29T01:04:54;41.52;39.28;44.19;;
36217;Laerm;22259;48.792;8.964;2022-07-29T01:07:22;41.59;38.88;44.93;;
36217;Laerm;22259;48.792;8.964;2022-07-29T01:09:48;41.35;38.74;45.87;;
36217;Laerm;22259;48.792;8.964;2022-07-29T01:12:14;41.11;38.78;44.65;;
36217;Laerm;22259;48.792;8.964;2022-07-29T01:14:41;41.38;39.12;43.48;;
36217;Laerm;22259;48.792;8.964;2022-07-29T01:17:10;41.51;38.33;44.56;;
36217;Laerm;22259;48.792;8.964;2022-07-29T01:22:47;53.63;38.49;70.37;;
36217;Laerm;22259;48.792;8.964;2022-07-29T01:33:34;57.79;38.60;75.95;;
36217;Laerm;22259;48.792;8.964;2022-07-29T01:36:32;40.73;37.70;46.31;;
36217;Laerm;22259;48.792;8.964;2022-07-29T01:39:01;40.76;38.41;43.49;;
36217;Laerm;22259;48.792;8.964;2022-07-29T01:41:28;41.42;38.53;45.48;;
36217;Laerm;22259;48.792;8.964;2022-07-29T01:43:57;40.98;38.74;43.05;;
36217;Laerm;22259;48.792;8.964;2022-07-29T01:46:29;40.70;38.33;43.29;;
36217;Laerm;22259;48.792;8.964;2022-07-29T01:48:57;40.62;38.13;42.90;;
36217;Laerm;22259;48.792;8.964;2022-07-29T01:51:25;40.62;38.13;43.66;;
36217;Laerm;22259;48.792;8.964;2022-07-29T01:53:59;40.73;38.41;44.04;;
36217;Laerm;22259;48.792;8.964;2022-07-29T01:56:27;40.52;38.05;43.28;;
36217;Laerm;22259;48.792;8.964;2022-07-29T01:58:56;41.08;38.67;44.21;;
36217;Laerm;22259;48.792;8.964;2022-07-29T02:01:22;45.51;38.17;61.14;;
36217;Laerm;22259;48.792;8.964;2022-07-29T02:03:50;41.04;38.33;45.15;;
36217;Laerm;22259;48.792;8.964;2022-07-29T02:06:17;41.09;38.52;44.13;;
36217;Laerm;22259;48.792;8.964;2022-07-29T02:08:44;40.87;38.71;43.93;;
36217;Laerm;22259;48.792;8.964;2022-07-29T02:11:10;40.84;38.21;42.90;;
36217;Laerm;22259;48.792;8.964;2022-07-29T02:13:36;41.04;38.49;43.88;;
36217;Laerm;22259;48.792;8.964;2022-07-29T02:16:02;40.90;38.33;43.57;;
36217;Laerm;22259;48.792;8.964;2022-07-29T02:18:30;40.97;38.63;45.06;;
36217;Laerm;22259;48.792;8.964;2022-07-29T02:20:57;40.87;38.52;42.93;;
36217;Laerm;22259;48.792;8.964;2022-07-29T02:23:23;40.85;37.88;44.14;;
36217;Laerm;22259;48.792;8.964;2022-07-29T02:25:53;41.00;38.52;43.28;;
36217;Laerm;22259;48.792;8.964;2022-07-29T02:28:20;40.60;37.56;43.00;;
36217;Laerm;22259;48.792;8.964;2022-07-29T02:30:47;40.51;37.70;45.97;;
36217;Laerm;22259;48.792;8.964;2022-07-29T02:33:15;40.67;38.45;42.88;;
36217;Laerm;22259;48.792;8.964;2022-07-29T02:35:41;41.06;38.33;44.19;;
36217;Laerm;22259;48.792;8.964;2022-07-29T02:38:09;41.02;38.25;43.93;;
36217;Laerm;22259;48.792;8.964;2022-07-29T02:40:55;40.67;38.01;43.32;;
36217;Laerm;22259;48.792;8.964;2022-07-29T02:43:22;48.71;38.01;62.67;;
36217;Laerm;22259;48.792;8.964;2022-07-29T02:45:50;49.30;38.78;66.83;;
36217;Laerm;22259;48.792;8.964;2022-07-29T02:48:16;40.83;38.01;43.63;;
36217;Laerm;22259;48.792;8.964;2022-07-29T02:50:44;40.78;37.96;44.44;;
36217;Laerm;22259;48.792;8.964;2022-07-29T02:53:14;41.75;38.52;45.33;;
36217;Laerm;22259;48.792;8.964;2022-07-29T02:55:57;56.96;39.12;69.57;;
36217;Laerm;22259;48.792;8.964;2022-07-29T02:58:27;41.93;38.92;45.29;;
36217;Laerm;22259;48.792;8.964;2022-07-29T03:01:38;41.60;39.05;45.02;;
36217;Laerm;22259;48.792;8.964;2022-07-29T03:04:04;45.87;38.95;62.39;;
36217;Laerm;22259;48.792;8.964;2022-07-29T03:06:30;45.65;38.98;60.00;;
36217;Laerm;22259;48.792;8.964;2022-07-29T03:08:58;41.93;38.88;57.81;;
36217;Laerm;22259;48.792;8.964;2022-07-29T03:11:24;42.01;39.40;44.20;;
36217;Laerm;22259;48.792;8.964;2022-07-29T03:13:49;42.35;39.87;47.58;;
36217;Laerm;22259;48.792;8.964;2022-07-29T03:16:15;49.94;39.15;68.21;;
36217;Laerm;22259;48.792;8.964;2022-07-29T03:18:41;41.83;39.37;46.84;;
36217;Laerm;22259;48.792;8.964;2022-07-29T03:21:06;41.55;38.95;44.51;;
36217;Laerm;22259;48.792;8.964;2022-07-29T03:23:31;41.41;38.90;43.66;;
36217;Laerm;22259;48.792;8.964;2022-07-29T03:25:57;41.58;38.95;44.19;;
36217;Laerm;22259;48.792;8.964;2022-07-29T03:28:23;42.28;39.31;45.43;;
36217;Laerm;22259;48.792;8.964;2022-07-29T03:30:48;48.01;39.37;63.03;;
36217;Laerm;22259;48.792;8.964;2022-07-29T03:33:14;46.77;39.31;64.70;;
36217;Laerm;22259;48.792;8.964;2022-07-29T03:35:40;41.78;39.46;43.60;;
36217;Laerm;22259;48.792;8.964;2022-07-29T03:38:06;41.66;39.02;43.60;;
36217;Laerm;22259;48.792;8.964;2022-07-29T03:40:38;42.26;39.73;50.11;;
36217;Laerm;22259;48.792;8.964;2022-07-29T03:43:06;43.34;40.43;52.37;;
36217;Laerm;22259;48.792;8.964;2022-07-29T03:45:33;49.69;40.18;64.59;;
36217;Laerm;22259;48.792;8.964;2022-07-29T03:48:01;49.10;40.21;64.61;;
36217;Laerm;22259;48.792;8.964;2022-07-29T03:50:27;42.65;40.58;46.37;;
36217;Laerm;22259;48.792;8.964;2022-07-29T03:52:53;42.63;40.69;51.92;;
36217;Laerm;22259;48.792;8.964;2022-07-29T03:55:19;42.74;40.18;45.01;;
36217;Laerm;22259;48.792;8.964;2022-07-29T03:57:44;43.67;40.67;54.19;;
36217;Laerm;22259;48.792;8.964;2022-07-29T04:00:10;48.76;40.73;65.07;;
36217;Laerm;22259;48.792;8.964;2022-07-29T04:02:36;50.34;40.71;64.92;;
36217;Laerm;22259;48.792;8.964;2022-07-29T04:05:01;43.10;40.20;54.04;;
36217;Laerm;22259;48.792;8.964;2022-07-29T04:07:27;43.39;39.92;67.67;;
36217;Laerm;22259;48.792;8.964;2022-07-29T04:09:52;42.92;39.84;52.66;;
36217;Laerm;22259;48.792;8.964;2022-07-29T04:12:18;43.14;39.95;50.25;;
36217;Laerm;22259;48.792;8.964;2022-07-29T04:14:43;50.84;40.48;68.52;;
36217;Laerm;22259;48.792;8.964;2022-07-29T04:17:08;43.56;40.36;52.25;;
36217;Laerm;22259;48.792;8.964;2022-07-29T04:19:34;50.32;41.38;64.62;;
36217;Laerm;22259;48.792;8.964;2022-07-29T04:22:00;44.03;41.04;61.33;;
36217;Laerm;22259;48.792;8.964;2022-07-29T04:24:25;45.13;41.10;59.54;;
36217;Laerm;22259;48.792;8.964;2022-07-29T04:26:51;43.19;40.91;48.73;;
36217;Laerm;22259;48.792;8.964;2022-07-29T04:29:16;44.30;39.78;65.71;;
36217;Laerm;22259;48.792;8.964;2022-07-29T04:31:41;53.85;41.04;66.63;;
36217;Laerm;22259;48.792;8.964;2022-07-29T04:34:07;43.58;41.16;54.21;;
36217;Laerm;22259;48.792;8.964;2022-07-29T04:36:34;42.94;40.36;48.30;;
36217;Laerm;22259;48.792;8.964;2022-07-29T04:38:59;43.51;40.93;48.41;;
36217;Laerm;22259;48.792;8.964;2022-07-29T04:41:26;43.47;41.34;48.08;;
36217;Laerm;22259;48.792;8.964;2022-07-29T04:43:51;44.11;41.66;51.31;;
36217;Laerm;22259;48.792;8.964;2022-07-29T04:46:16;53.62;41.81;68.53;;
36217;Laerm;22259;48.792;8.964;2022-07-29T04:48:42;44.00;41.72;50.45;;
36217;Laerm;22259;48.792;8.964;2022-07-29T04:51:07;43.68;41.50;49.63;;
36217;Laerm;22259;48.792;8.964;2022-07-29T04:53:32;44.35;41.18;53.11;;
36217;Laerm;22259;48.792;8.964;2022-07-29T04:55:58;45.94;41.08;56.24;;
36217;Laerm;22259;48.792;8.964;2022-07-29T04:58:23;47.90;41.10;67.49;;
36217;Laerm;22259;48.792;8.964;2022-07-29T05:00:49;51.25;41.82;67.48;;
36217;Laerm;22259;48.792;8.964;2022-07-29T05:03:14;50.71;41.61;66.13;;
36217;Laerm;22259;48.792;8.964;2022-07-29T05:05:40;55.82;41.57;70.03;;
36217;Laerm;22259;48.792;8.964;2022-07-29T05:08:06;43.82;41.38;48.60;;
36217;Laerm;22259;48.792;8.964;2022-07-29T05:10:31;43.59;40.89;55.54;;
36217;Laerm;22259;48.792;8.964;2022-07-29T05:12:57;44.16;41.02;55.87;;
36217;Laerm;22259;48.792;8.964;2022-07-29T05:15:23;50.68;41.34;64.58;;
36217;Laerm;22259;48.792;8.964;2022-07-29T05:17:48;50.69;41.57;69.22;;
36217;Laerm;22259;48.792;8.964;2022-07-29T05:20:13;49.37;41.15;69.36;;
36217;Laerm;22259;48.792;8.964;2022-07-29T05:22:39;45.85;41.66;69.63;;
36217;Laerm;22259;48.792;8.964;2022-07-29T05:25:04;46.42;41.65;66.49;;
36217;Laerm;22259;48.792;8.964;2022-07-29T05:27:30;43.56;41.61;47.97;;
36217;Laerm;22259;48.792;8.964;2022-07-29T05:29:55;50.99;41.63;67.20;;
36217;Laerm;22259;48.792;8.964;2022-07-29T05:32:21;51.86;41.30;67.16;;
36217;Laerm;22259;48.792;8.964;2022-07-29T05:34:46;43.76;41.16;48.88;;
36217;Laerm;22259;48.792;8.964;2022-07-29T05:37:12;45.35;41.70;63.55;;
36217;Laerm;22259;48.792;8.964;2022-07-29T05:39:38;43.49;40.94;46.02;;
36217;Laerm;22259;48.792;8.964;2022-07-29T05:42:07;43.23;40.77;46.93;;
36217;Laerm;22259;48.792;8.964;2022-07-29T05:44:35;48.91;41.51;64.59;;
36217;Laerm;22259;48.792;8.964;2022-07-29T05:47:01;53.01;40.60;69.21;;
36217;Laerm;22259;48.792;8.964;2022-07-29T05:49:26;50.42;40.97;61.97;;
36217;Laerm;22259;48.792;8.964;2022-07-29T05:51:51;43.52;40.82;51.49;;
36217;Laerm;22259;48.792;8.964;2022-07-29T05:54:17;43.17;40.53;50.32;;
36217;Laerm;22259;48.792;8.964;2022-07-29T05:56:42;42.95;40.43;50.43;;
36217;Laerm;22259;48.792;8.964;2022-07-29T05:59:07;42.74;40.31;48.81;;
36217;Laerm;22259;48.792;8.964;2022-07-29T06:01:33;52.12;40.18;67.17;;
36217;Laerm;22259;48.792;8.964;2022-07-29T06:03:58;42.73;40.21;46.03;;
36217;Laerm;22259;48.792;8.964;2022-07-29T06:06:24;60.55;40.53;76.41;;
36217;Laerm;22259;48.792;8.964;2022-07-29T06:08:49;43.84;40.38;51.32;;
36217;Laerm;22259;48.792;8.964;2022-07-29T06:11:14;43.27;39.87;55.92;;
36217;Laerm;22259;48.792;8.964;2022-07-29T06:13:40;43.11;40.00;52.99;;
36217;Laerm;22259;48.792;8.964;2022-07-29T06:16:05;51.21;39.97;68.76;;
36217;Laerm;22259;48.792;8.964;2022-07-29T06:18:30;53.26;40.48;64.25;;
36217;Laerm;22259;48.792;8.964;2022-07-29T06:20:56;42.68;40.08;54.58;;
36217;Laerm;22259;48.792;8.964;2022-07-29T06:23:21;43.36;39.52;62.14;;
36217;Laerm;22259;48.792;8.964;2022-07-29T06:25:47;43.49;39.61;50.15;;
36217;Laerm;22259;48.792;8.964;2022-07-29T06:28:13;42.83;40.03;53.79;;
36217;Laerm;22259;48.792;8.964;2022-07-29T06:30:39;42.90;39.12;48.48;;
36217;Laerm;22259;48.792;8.964;2022-07-29T06:33:04;53.68;39.55;68.03;;
36217;Laerm;22259;48.792;8.964;2022-07-29T06:35:32;41.70;39.15;45.24;;
36217;Laerm;22259;48.792;8.964;2022-07-29T06:37:58;43.20;38.71;64.32;;
36217;Laerm;22259;48.792;8.964;2022-07-29T06:40:23;41.69;38.67;49.99;;
36217;Laerm;22259;48.792;8.964;2022-07-29T06:43:07;41.92;38.09;55.82;;
36217;Laerm;22259;48.792;8.964;2022-07-29T06:45:35;51.49;40.11;67.50;;
36217;Laerm;22259;48.792;8.964;2022-07-29T06:48:00;51.31;39.37;66.85;;
36217;Laerm;22259;48.792;8.964;2022-07-29T06:50:26;42.20;38.92;49.07;;
36217;Laerm;22259;48.792;8.964;2022-07-29T06:52:51;42.82;38.85;57.08;;
36217;Laerm;22259;48.792;8.964;2022-07-29T06:55:16;42.99;37.47;58.56;;
36217;Laerm;22259;48.792;8.964;2022-07-29T06:57:44;42.83;39.15;62.02;;
36217;Laerm;22259;48.792;8.964;2022-07-29T07:00:10;46.91;39.37;65.11;;
36217;Laerm;22259;48.792;8.964;2022-07-29T07:02:36;50.59;39.20;65.86;;
36217;Laerm;22259;48.792;8.964;2022-07-29T07:05:01;58.04;40.08;74.18;;
36217;Laerm;22259;48.792;8.964;2022-07-29T07:07:26;42.57;38.92;60.70;;
36217;Laerm;22259;48.792;8.964;2022-07-29T07:09:52;41.73;38.98;54.90;;
36217;Laerm;22259;48.792;8.964;2022-07-29T07:12:17;42.61;39.15;58.37;;
36217;Laerm;22259;48.792;8.964;2022-07-29T07:14:43;48.97;38.21;65.41;;
36217;Laerm;22259;48.792;8.964;2022-07-29T07:17:08;51.01;38.17;65.87;;
36217;Laerm;22259;48.792;8.964;2022-07-29T07:19:33;41.73;38.81;45.89;;
36217;Laerm;22259;48.792;8.964;2022-07-29T07:21:59;55.50;39.15;74.62;;
36217;Laerm;22259;48.792;8.964;2022-07-29T07:24:24;47.41;38.95;63.95;;
36217;Laerm;22259;48.792;8.964;2022-07-29T07:26:50;41.26;37.52;48.68;;
36217;Laerm;22259;48.792;8.964;2022-07-29T07:29:16;43.55;38.60;68.98;;
36217;Laerm;22259;48.792;8.964;2022-07-29T07:31:41;51.06;39.18;67.75;;
36217;Laerm;22259;48.792;8.964;2022-07-29T07:34:06;48.65;38.17;63.99;;
36217;Laerm;22259;48.792;8.964;2022-07-29T07:36:32;41.35;38.13;49.04;;
36217;Laerm;22259;48.792;8.964;2022-07-29T07:38:57;42.50;38.67;47.89;;
36217;Laerm;22259;48.792;8.964;2022-07-29T07:41:23;42.36;38.88;50.17;;
36217;Laerm;22259;48.792;8.964;2022-07-29T07:43:48;42.00;38.41;65.22;;
36217;Laerm;22259;48.792;8.964;2022-07-29T07:46:13;49.10;37.92;64.11;;
36217;Laerm;22259;48.792;8.964;2022-07-29T07:48:39;41.19;37.75;54.44;;
36217;Laerm;22259;48.792;8.964;2022-07-29T07:51:04;51.03;37.88;64.99;;
36217;Laerm;22259;48.792;8.964;2022-07-29T07:53:30;42.70;38.41;48.67;;
36217;Laerm;22259;48.792;8.964;2022-07-29T07:55:55;40.70;38.01;54.79;;
36217;Laerm;22259;48.792;8.964;2022-07-29T07:58:21;41.28;38.74;47.73;;
36217;Laerm;22259;48.792;8.964;2022-07-29T08:00:46;48.16;36.91;63.86;;
36217;Laerm;22259;48.792;8.964;2022-07-29T08:03:12;42.16;38.01;54.62;;
36217;Laerm;22259;48.792;8.964;2022-07-29T08:05:39;52.33;38.52;69.03;;
36217;Laerm;22259;48.792;8.964;2022-07-29T08:08:04;44.18;38.88;62.15;;
36217;Laerm;22259;48.792;8.964;2022-07-29T08:10:30;43.63;39.08;58.91;;
36217;Laerm;22259;48.792;8.964;2022-07-29T08:13:14;42.29;37.96;55.74;;
36217;Laerm;22259;48.792;8.964;2022-07-29T08:15:39;49.48;39.46;65.59;;
36217;Laerm;22259;48.792;8.964;2022-07-29T08:18:06;42.25;38.88;46.51;;
36217;Laerm;22259;48.792;8.964;2022-07-29T08:20:31;42.60;39.21;48.70;;
36217;Laerm;22259;48.792;8.964;2022-07-29T08:23:00;45.99;39.40;60.20;;
36217;Laerm;22259;48.792;8.964;2022-07-29T08:25:25;43.65;39.67;53.47;;
36217;Laerm;22259;48.792;8.964;2022-07-29T08:27:51;43.65;38.49;62.23;;
36217;Laerm;22259;48.792;8.964;2022-07-29T08:30:16;50.93;38.45;64.63;;
36217;Laerm;22259;48.792;8.964;2022-07-29T08:32:41;42.20;38.85;56.76;;
36217;Laerm;22259;48.792;8.964;2022-07-29T08:35:07;41.25;38.63;49.65;;
36217;Laerm;22259;48.792;8.964;2022-07-29T08:37:32;41.21;38.63;52.73;;
36217;Laerm;22259;48.792;8.964;2022-07-29T08:39:58;50.49;38.85;68.99;;
36217;Laerm;22259;48.792;8.964;2022-07-29T08:42:23;42.39;38.71;49.93;;
36217;Laerm;22259;48.792;8.964;2022-07-29T08:44:49;42.75;39.25;62.60;;
36217;Laerm;22259;48.792;8.964;2022-07-29T08:47:15;51.00;39.28;68.34;;
36217;Laerm;22259;48.792;8.964;2022-07-29T08:49:41;58.15;38.52;74.89;;
36217;Laerm;22259;48.792;8.964;2022-07-29T08:52:06;41.31;38.56;48.41;;
36217;Laerm;22259;48.792;8.964;2022-07-29T08:54:31;50.85;38.95;66.75;;
36217;Laerm;22259;48.792;8.964;2022-07-29T08:56:57;43.31;38.52;55.98;;
36217;Laerm;22259;48.792;8.964;2022-07-29T08:59:24;41.98;39.02;46.29;;
36217;Laerm;22259;48.792;8.964;2022-07-29T09:01:52;52.96;38.88;66.43;;
36217;Laerm;22259;48.792;8.964;2022-07-29T09:04:18;41.42;38.37;44.91;;
36217;Laerm;22259;48.792;8.964;2022-07-29T09:06:45;41.04;38.33;45.73;;
36217;Laerm;22259;48.792;8.964;2022-07-29T09:09:11;41.08;37.75;45.96;;
36217;Laerm;22259;48.792;8.964;2022-07-29T09:11:37;40.69;37.56;46.49;;
36217;Laerm;22259;48.792;8.964;2022-07-29T09:14:02;42.20;37.92;53.64;;
36217;Laerm;22259;48.792;8.964;2022-07-29T09:16:43;52.05;37.96;69.30;;
36217;Laerm;22259;48.792;8.964;2022-07-29T09:19:21;48.92;38.81;63.91;;
36217;Laerm;22259;48.792;8.964;2022-07-29T09:21:47;42.23;38.56;52.71;;
36217;Laerm;22259;48.792;8.964;2022-07-29T09:24:26;50.43;39.75;68.88;;
36217;Laerm;22259;48.792;8.964;2022-07-29T09:26:52;44.33;39.15;58.09;;
36217;Laerm;22259;48.792;8.964;2022-07-29T09:29:18;41.58;38.60;47.88;;
36217;Laerm;22259;48.792;8.964;2022-07-29T09:31:45;48.78;38.60;65.11;;
36217;Laerm;22259;48.792;8.964;2022-07-29T09:34:11;50.69;39.05;68.01;;
36217;Laerm;22259;48.792;8.964;2022-07-29T09:36:44;42.45;39.46;47.39;;
36217;Laerm;22259;48.792;8.964;2022-07-29T09:39:10;42.32;39.05;49.07;;
36217;Laerm;22259;48.792;8.964;2022-07-29T09:41:45;42.35;39.15;52.18;;
36217;Laerm;22259;48.792;8.964;2022-07-29T09:44:11;42.28;38.60;51.64;;
36217;Laerm;22259;48.792;8.964;2022-07-29T09:46:36;49.39;39.12;66.88;;
36217;Laerm;22259;48.792;8.964;2022-07-29T09:49:11;42.91;39.37;48.93;;
36217;Laerm;22259;48.792;8.964;2022-07-29T09:51:38;45.68;39.15;67.07;;
36217;Laerm;22259;48.792;8.964;2022-07-29T09:56:48;49.76;39.21;65.91;;
36217;Laerm;22259;48.792;8.964;2022-07-29T09:59:14;43.24;39.31;59.03;;
36217;Laerm;22259;48.792;8.964;2022-07-29T10:01:39;51.47;40.41;68.54;;
36217;Laerm;22259;48.792;8.964;2022-07-29T10:04:05;43.61;40.78;50.10;;
36217;Laerm;22259;48.792;8.964;2022-07-29T10:06:30;50.15;40.08;64.40;;
36217;Laerm;22259;48.792;8.964;2022-07-29T10:09:17;42.28;38.95;60.17;;
36217;Laerm;22259;48.792;8.964;2022-07-29T10:11:42;41.91;38.85;54.64;;
36217;Laerm;22259;48.792;8.964;2022-07-29T10:14:33;48.95;39.46;65.63;;
36217;Laerm;22259;48.792;8.964;2022-07-29T10:17:00;43.53;39.15;60.48;;
36217;Laerm;22259;48.792;8.964;2022-07-29T10:19:26;41.91;38.71;56.68;;
36217;Laerm;22259;48.792;8.964;2022-07-29T10:21:53;42.14;39.52;55.44;;
36217;Laerm;22259;48.792;8.964;2022-07-29T10:24:18;48.82;39.02;64.14;;
36217;Laerm;22259;48.792;8.964;2022-07-29T10:26:45;43.27;38.85;54.37;;
36217;Laerm;22259;48.792;8.964;2022-07-29T10:29:15;43.10;38.98;66.91;;
36217;Laerm;22259;48.792;8.964;2022-07-29T10:31:44;51.32;39.67;65.98;;
36217;Laerm;22259;48.792;8.964;2022-07-29T10:37:20;53.29;39.84;70.23;;
36217;Laerm;22259;48.792;8.964;2022-07-29T10:40:09;48.96;46.16;62.51;;
36217;Laerm;22259;48.792;8.964;2022-07-29T10:42:56;51.50;44.08;69.39;;
36217;Laerm;22259;48.792;8.964;2022-07-29T10:45:30;59.90;49.48;80.35;;
36217;Laerm;22259;48.792;8.964;2022-07-29T10:48:02;61.63;53.87;77.22;;
36217;Laerm;22259;48.792;8.964;2022-07-29T10:53:15;65.50;60.20;87.51;;
36217;Laerm;22259;48.792;8.964;2022-07-29T10:55:41;69.74;62.69;85.74;;
36217;Laerm;22259;48.792;8.964;2022-07-29T10:58:13;65.99;61.74;72.09;;
36217;Laerm;22259;48.792;8.964;2022-07-29T11:00:39;64.41;57.26;72.97;;
36217;Laerm;22259;48.792;8.964;2022-07-29T11:03:04;63.12;55.45;75.73;;
36217;Laerm;22259;48.792;8.964;2022-07-29T11:05:51;60.28;51.59;73.40;;
36217;Laerm;22259;48.792;8.964;2022-07-29T11:08:19;55.50;47.65;71.81;;
36217;Laerm;22259;48.792;8.964;2022-07-29T11:10:48;53.29;44.72;67.05;;
36217;Laerm;22259;48.792;8.964;2022-07-29T11:13:40;51.66;44.78;67.85;;
36217;Laerm;22259;48.792;8.964;2022-07-29T11:16:11;55.40;44.48;70.29;;
36217;Laerm;22259;48.792;8.964;2022-07-29T11:19:05;51.04;43.26;66.53;;
36217;Laerm;22259;48.792;8.964;2022-07-29T11:21:44;50.90;43.36;67.06;;
36217;Laerm;22259;48.792;8.964;2022-07-29T11:24:19;48.97;43.45;63.58;;
36217;Laerm;22259;48.792;8.964;2022-07-29T11:26:56;48.39;43.29;65.41;;
36217;Laerm;22259;48.792;8.964;2022-07-29T11:29:31;47.94;43.01;63.78;;
36217;Laerm;22259;48.792;8.964;2022-07-29T11:32:07;48.38;42.92;63.93;;
36217;Laerm;22259;48.792;8.964;2022-07-29T11:34:33;54.75;42.82;68.85;;
36217;Laerm;22259;48.792;8.964;2022-07-29T11:40:09;49.17;42.50;70.64;;
36217;Laerm;22259;48.792;8.964;2022-07-29T11:42:40;47.47;42.22;62.89;;
36217;Laerm;22259;48.792;8.964;2022-07-29T11:45:12;50.43;42.03;64.35;;
36217;Laerm;22259;48.792;8.964;2022-07-29T11:47:49;46.31;41.86;63.05;;
36217;Laerm;22259;48.792;8.964;2022-07-29T11:50:16;50.55;41.86;64.33;;
36217;Laerm;22259;48.792;8.964;2022-07-29T11:52:46;47.60;41.75;64.37;;
36217;Laerm;22259;48.792;8.964;2022-07-29T11:55:13;49.21;41.48;67.31;;
36217;Laerm;22259;48.792;8.964;2022-07-29T11:57:46;48.18;40.79;63.54;;
36217;Laerm;22259;48.792;8.964;2022-07-29T12:00:19;51.01;40.89;66.10;;
36217;Laerm;22259;48.792;8.964;2022-07-29T12:02:46;51.94;41.46;67.46;;
36217;Laerm;22259;48.792;8.964;2022-07-29T12:05:11;46.77;40.50;63.58;;
36217;Laerm;22259;48.792;8.964;2022-07-29T12:07:37;50.97;41.53;67.52;;
36217;Laerm;22259;48.792;8.964;2022-07-29T12:10:04;46.88;40.93;59.54;;
36217;Laerm;22259;48.792;8.964;2022-07-29T12:12:30;55.88;41.40;78.60;;
36217;Laerm;22259;48.792;8.964;2022-07-29T12:14:56;58.91;41.75;77.75;;
36217;Laerm;22259;48.792;8.964;2022-07-29T12:17:31;62.56;42.09;79.73;;
36217;Laerm;22259;48.792;8.964;2022-07-29T12:19:58;57.08;41.16;75.13;;
36217;Laerm;22259;48.792;8.964;2022-07-29T12:22:30;54.02;41.14;70.88;;
36217;Laerm;22259;48.792;8.964;2022-07-29T12:25:00;58.77;40.93;78.82;;
36217;Laerm;22259;48.792;8.964;2022-07-29T12:27:27;57.87;40.48;79.29;;
36217;Laerm;22259;48.792;8.964;2022-07-29T12:29:56;43.47;40.28;56.67;;
36217;Laerm;22259;48.792;8.964;2022-07-29T12:32:21;51.69;40.60;69.67;;
36217;Laerm;22259;48.792;8.964;2022-07-29T12:34:48;49.58;41.18;66.90;;
36217;Laerm;22259;48.792;8.964;2022-07-29T12:37:14;43.28;40.48;54.85;;
36217;Laerm;22259;48.792;8.964;2022-07-29T12:39:40;43.42;41.53;49.22;;
36217;Laerm;22259;48.792;8.964;2022-07-29T12:42:15;43.87;41.38;50.55;;
36217;Laerm;22259;48.792;8.964;2022-07-29T12:44:44;47.07;41.44;62.43;;
36217;Laerm;22259;48.792;8.964;2022-07-29T12:47:10;43.92;41.30;52.82;;
36217;Laerm;22259;48.792;8.964;2022-07-29T12:49:36;54.62;40.93;77.23;;
36217;Laerm;22259;48.792;8.964;2022-07-29T12:52:01;43.00;40.03;50.12;;
36217;Laerm;22259;48.792;8.964;2022-07-29T12:57:44;44.55;40.13;62.54;;
36217;Laerm;22259;48.792;8.964;2022-07-29T13:00:11;47.40;40.62;68.94;;
36217;Laerm;22259;48.792;8.964;2022-07-29T13:02:38;54.83;40.73;69.79;;
36217;Laerm;22259;48.792;8.964;2022-07-29T13:05:04;44.06;40.87;58.50;;
36217;Laerm;22259;48.792;8.964;2022-07-29T13:07:32;43.13;40.64;55.56;;
36217;Laerm;22259;48.792;8.964;2022-07-29T13:10:11;43.66;40.60;59.68;;
36217;Laerm;22259;48.792;8.964;2022-07-29T13:12:37;45.94;41.06;67.42;;
36217;Laerm;22259;48.792;8.964;2022-07-29T13:15:15;49.70;41.34;64.28;;
36217;Laerm;22259;48.792;8.964;2022-07-29T13:17:44;51.02;41.26;67.82;;
36217;Laerm;22259;48.792;8.964;2022-07-29T13:20:10;46.41;40.64;64.93;;
36217;Laerm;22259;48.792;8.964;2022-07-29T13:22:39;54.34;40.55;73.03;;
36217;Laerm;22259;48.792;8.964;2022-07-29T13:25:05;44.24;40.57;57.61;;
36217;Laerm;22259;48.792;8.964;2022-07-29T13:27:34;44.71;40.46;60.76;;
36217;Laerm;22259;48.792;8.964;2022-07-29T13:30:03;45.05;40.13;61.99;;
36217;Laerm;22259;48.792;8.964;2022-07-29T13:32:29;54.49;41.51;69.22;;
36217;Laerm;22259;48.792;8.964;2022-07-29T13:34:55;44.04;40.97;61.22;;
36217;Laerm;22259;48.792;8.964;2022-07-29T13:37:20;44.92;40.00;69.15;;
36217;Laerm;22259;48.792;8.964;2022-07-29T13:39:46;44.21;39.89;56.66;;
36217;Laerm;22259;48.792;8.964;2022-07-29T13:42:12;44.31;39.46;56.30;;
36217;Laerm;22259;48.792;8.964;2022-07-29T13:44:38;47.53;38.74;62.24;;
36217;Laerm;22259;48.792;8.964;2022-07-29T13:47:04;51.38;40.69;67.61;;
36217;Laerm;22259;48.792;8.964;2022-07-29T13:49:30;44.66;39.91;58.66;;
36217;Laerm;22259;48.792;8.964;2022-07-29T13:51:55;52.54;40.33;68.15;;
36217;Laerm;22259;48.792;8.964;2022-07-29T13:54:20;43.23;39.18;57.81;;
36217;Laerm;22259;48.792;8.964;2022-07-29T13:56:46;44.36;39.08;62.22;;
36217;Laerm;22259;48.792;8.964;2022-07-29T13:59:12;43.59;39.08;56.15;;
36217;Laerm;22259;48.792;8.964;2022-07-29T14:01:37;48.72;38.71;65.79;;
36217;Laerm;22259;48.792;8.964;2022-07-29T14:04:04;51.70;40.13;68.21;;
36217;Laerm;22259;48.792;8.964;2022-07-29T14:06:29;43.17;38.88;57.99;;
36217;Laerm;22259;48.792;8.964;2022-07-29T14:08:55;46.78;38.17;62.38;;
36217;Laerm;22259;48.792;8.964;2022-07-29T14:11:20;43.99;40.03;56.16;;
36217;Laerm;22259;48.792;8.964;2022-07-29T14:13:46;54.30;39.52;69.31;;